Transatlantic — WDC2769 — position and weather

sailwx.info

Track history (hours):
 
Tides and Currents Weather Stations Pressure Air Temp Water Temp Dewpoint Dewpoint Depression Visibility Wind Speed Wind Dir Waves Ship Positions

Transatlantic

Owner: TRANSATLANTIC LINES SHIP HOLDINGS II INC, Greenwich, CT. More information available from US FCC via Universal Licensing System and Coast Guard Vessel Documentation Center.

Last reported at 2016-Aug-21 10:11 UTC. Time now 2016-Aug-26 23:30 UTC.
Position N 30°38' W 122°32'.

Length 101 m; draft 4.8 m.

Type: Cargo ship. MMSI: 366997520.

Date/timePositionNaut miles runAvg speedWind from/ knotsBaromVisibWave heightAir tempDewpointWater temp
2016-Aug-21 10:11N 30°38' W 122°32'35713.9
2016-Aug-20 08:25N 35°33' W 126°34'1314.1
2016-Aug-20 07:31N 35°44' W 126°41'1713.7
2016-Aug-20 06:16N 35°60' W 126°50'3813.8
2016-Aug-20 03:30N 36°35' W 127°10'3014.1
2016-Aug-20 01:23N 37°02' W 127°23'26013.8
2016-Aug-19 06:33N 41°10' W 129°02'41911.2
2016-Aug-17 17:08N 47°50' W 126°04'812.8
2016-Aug-17 16:33N 47°55' W 125°55'1512.5
2016-Aug-17 15:20N 48°04' W 125°38'1012.8
2016-Aug-17 14:33N 48°11' W 125°26'1212.2
2016-Aug-17 13:33N 48°19' W 125°13'1312.7
2016-Aug-17 12:33N 48°30' W 125°03'1313.5
2016-Aug-17 11:33N 48°30' W 124°42'1413.6
2016-Aug-17 10:33N 48°25' W 124°23'1211.6
2016-Aug-17 09:33N 48°20' W 124°07'1312.5
2016-Aug-17 08:32N 48°17' W 123°49'1212.6
2016-Aug-17 07:33N 48°15' W 123°30'7 7.2
2016-Aug-17 06:30N 48°08' W 123°26'0 0.1
2016-Aug-17 05:30N 48°08' W 123°26'0 0.0
2016-Aug-17 04:27N 48°08' W 123°26'0 0.0
2016-Aug-17 03:24N 48°08' W 123°26'0 0.0
2016-Aug-17 02:30N 48°08' W 123°26'0 0.0
2016-Aug-17 01:27N 48°08' W 123°26'0 0.0
2016-Aug-17 00:33N 48°08' W 123°26'0 0.0
2016-Aug-16 23:33N 48°08' W 123°26'0 0.0
2016-Aug-16 22:15N 48°08' W 123°26'0 0.0
2016-Aug-16 21:21N 48°08' W 123°26'0 0.0
2016-Aug-16 20:33N 48°08' W 123°26'0 0.0
2016-Aug-16 19:27N 48°08' W 123°26'0 0.0
2016-Aug-16 18:30N 48°08' W 123°26'0 0.0
2016-Aug-16 17:30N 48°08' W 123°26'0 0.0
2016-Aug-16 16:30N 48°08' W 123°26'0 0.0
2016-Aug-16 15:33N 48°08' W 123°26'0 0.0
2016-Aug-16 14:32N 48°08' W 123°26'2 2.2
2016-Aug-16 13:34N 48°08' W 123°23'1413.3
2016-Aug-16 12:31N 48°12' W 123°03'1614.1
2016-Aug-16 11:24N 48°07' W 122°40'1214.2
2016-Aug-16 10:33N 47°57' W 122°32'1313.0
2016-Aug-16 09:33N 47°44' W 122°26'1313.1
2016-Aug-16 08:33N 47°31' W 122°25'1212.0
2016-Aug-16 07:33N 47°19' W 122°26'3 0.5
2016-Aug-16 00:33N 47°16' W 122°25'0 0.0
2016-Aug-15 21:33N 47°16' W 122°25'0 0.0
2016-Aug-15 20:09N 47°16' W 122°25'0 0.0
2016-Aug-15 19:21N 47°16' W 122°25'0 0.0
2016-Aug-15 18:30N 47°16' W 122°25'0 0.0
2016-Aug-15 17:33N 47°16' W 122°25'0 0.0
2016-Aug-15 16:27N 47°16' W 122°25'0 0.0
2016-Aug-15 15:33N 47°16' W 122°25'0 0.0
2016-Aug-15 14:33N 47°16' W 122°25'0 0.0
2016-Aug-15 13:30N 47°16' W 122°25'0 0.0
2016-Aug-15 11:18N 47°16' W 122°25'0 0.0
2016-Aug-15 09:11N 47°16' W 122°25'0 0.0
2016-Aug-15 07:24N 47°16' W 122°25'0 0.0
2016-Aug-15 06:29N 47°16' W 122°25'0 0.0
2016-Aug-15 04:30N 47°16' W 122°25'0 0.0
2016-Aug-14 23:29N 47°16' W 122°25'0 0.0
2016-Aug-14 21:32N 47°16' W 122°25'0 0.0
2016-Aug-14 20:32N 47°16' W 122°25'0 0.0
2016-Aug-14 19:29N 47°16' W 122°25'0 0.0
2016-Aug-14 18:29N 47°16' W 122°25'0 0.0
2016-Aug-14 17:23N 47°16' W 122°25'0 0.0
2016-Aug-14 16:29N 47°16' W 122°25'0 0.0
2016-Aug-14 15:30N 47°16' W 122°25'0 0.0
2016-Aug-14 14:29N 47°16' W 122°25'0 0.0
2016-Aug-14 12:17N 47°16' W 122°25'0 0.1
2016-Aug-14 11:29N 47°16' W 122°25'0 0.0
2016-Aug-14 10:29N 47°16' W 122°25'0 0.0
2016-Aug-14 09:32N 47°16' W 122°25'0 0.0
2016-Aug-14 08:33N 47°16' W 122°25'0 0.0
2016-Aug-14 07:29N 47°16' W 122°25'0 0.0
2016-Aug-14 06:29N 47°16' W 122°25'0 0.0
2016-Aug-14 04:17N 47°16' W 122°25'0 0.0
2016-Aug-14 03:32N 47°16' W 122°25'4 4.6
2016-Aug-14 02:33N 47°21' W 122°26'1111.0
2016-Aug-14 01:33N 47°32' W 122°26'1313.1
2016-Aug-14 00:33N 47°45' W 122°27'1312.6
2016-Aug-13 23:33N 47°57' W 122°33'1312.6
2016-Aug-13 22:29N 48°08' W 122°43'1112.0
2016-Aug-13 21:33N 48°12' W 122°59'1313.3
2016-Aug-13 20:33N 48°10' W 123°19'1111.6
2016-Aug-13 19:34N 48°13' W 123°35'1413.9
2016-Aug-13 18:32N 48°14' W 123°57'1313.6
2016-Aug-13 17:33N 48°20' W 124°15'1313.5
2016-Aug-13 16:33N 48°25' W 124°33'1212.4
2016-Aug-13 15:33N 48°29' W 124°51'1212.0
2016-Aug-13 14:33N 48°21' W 125°05'1313.4
2016-Aug-13 13:33N 48°09' W 125°11'1712.9
2016-Aug-13 12:14N 47°52' W 125°18'812.6
2016-Aug-13 11:33N 47°43' W 125°17'1212.3
2016-Aug-13 10:33N 47°31' W 125°16'1312.6
2016-Aug-13 09:33N 47°19' W 125°14'1212.5
2016-Aug-13 08:33N 47°06' W 125°13'1312.5
2016-Aug-13 07:33N 46°54' W 125°10'1212.4
2016-Aug-13 06:34N 46°42' W 125°08'1212.1
2016-Aug-13 05:33N 46°30' W 125°05'1212.2
2016-Aug-13 04:33N 46°18' W 125°02'1212.3
2016-Aug-13 03:34N 46°05' W 125°00'1212.2
2016-Aug-13 02:33N 45°53' W 124°59'1211.9
2016-Aug-13 01:34N 45°41' W 124°57'1212.0
2016-Aug-13 00:34N 45°30' W 124°53'1212.3
2016-Aug-12 23:34N 45°18' W 124°47'1212.3
2016-Aug-12 22:33N 45°06' W 124°44'1312.9
2016-Aug-12 21:34N 44°54' W 124°53'1312.8
2016-Aug-12 20:33N 44°42' W 124°58'1412.6
2016-Aug-12 19:28N 44°29' W 124°59'2412.4
2016-Aug-12 17:34N 44°05' W 124°55'1212.2
2016-Aug-12 16:34N 43°53' W 124°54'1312.1
2016-Aug-12 15:31N 43°40' W 124°53'1611.6
2016-Aug-12 14:09N 43°24' W 124°52'26910.1
2016-Aug-11 11:23N 38°57' W 124°04'1512.7
2016-Aug-11 10:14N 38°45' W 123°53'  
Track history (hours):
 
Tides and Currents Weather Stations Pressure Air Temp Water Temp Dewpoint Dewpoint Depression Visibility Wind Speed Wind Dir Waves Ship Positions

Transatlantic

Owner: TRANSATLANTIC LINES SHIP HOLDINGS II INC, Greenwich, CT. More information available from US FCC via Universal Licensing System and Coast Guard Vessel Documentation Center.

Last reported at 2016-Aug-21 10:11 UTC. Time now 2016-Aug-26 23:30 UTC.
Position N 30°38' W 122°32'.

Length 101 m; draft 4.8 m.

Type: Cargo ship. MMSI: 366997520.

Date/timePositionNaut miles runAvg speedWind from/ knotsBaromVisibWave heightAir tempDewpointWater temp
2016-Aug-21 10:11N 30°38' W 122°32'35713.9
2016-Aug-20 08:25N 35°33' W 126°34'1314.1
2016-Aug-20 07:31N 35°44' W 126°41'1713.7
2016-Aug-20 06:16N 35°60' W 126°50'3813.8
2016-Aug-20 03:30N 36°35' W 127°10'3014.1
2016-Aug-20 01:23N 37°02' W 127°23'26013.8
2016-Aug-19 06:33N 41°10' W 129°02'41911.2
2016-Aug-17 17:08N 47°50' W 126°04'812.8
2016-Aug-17 16:33N 47°55' W 125°55'1512.5
2016-Aug-17 15:20N 48°04' W 125°38'1012.8
2016-Aug-17 14:33N 48°11' W 125°26'1212.2
2016-Aug-17 13:33N 48°19' W 125°13'1312.7
2016-Aug-17 12:33N 48°30' W 125°03'1313.5
2016-Aug-17 11:33N 48°30' W 124°42'1413.6
2016-Aug-17 10:33N 48°25' W 124°23'1211.6
2016-Aug-17 09:33N 48°20' W 124°07'1312.5
2016-Aug-17 08:32N 48°17' W 123°49'1212.6
2016-Aug-17 07:33N 48°15' W 123°30'7 7.2
2016-Aug-17 06:30N 48°08' W 123°26'0 0.1
2016-Aug-17 05:30N 48°08' W 123°26'0 0.0
2016-Aug-17 04:27N 48°08' W 123°26'0 0.0
2016-Aug-17 03:24N 48°08' W 123°26'0 0.0
2016-Aug-17 02:30N 48°08' W 123°26'0 0.0
2016-Aug-17 01:27N 48°08' W 123°26'0 0.0
2016-Aug-17 00:33N 48°08' W 123°26'0 0.0
2016-Aug-16 23:33N 48°08' W 123°26'0 0.0
2016-Aug-16 22:15N 48°08' W 123°26'0 0.0
2016-Aug-16 21:21N 48°08' W 123°26'0 0.0
2016-Aug-16 20:33N 48°08' W 123°26'0 0.0
2016-Aug-16 19:27N 48°08' W 123°26'0 0.0
2016-Aug-16 18:30N 48°08' W 123°26'0 0.0
2016-Aug-16 17:30N 48°08' W 123°26'0 0.0
2016-Aug-16 16:30N 48°08' W 123°26'0 0.0
2016-Aug-16 15:33N 48°08' W 123°26'0 0.0
2016-Aug-16 14:32N 48°08' W 123°26'2 2.2
2016-Aug-16 13:34N 48°08' W 123°23'1413.3
2016-Aug-16 12:31N 48°12' W 123°03'1614.1
2016-Aug-16 11:24N 48°07' W 122°40'1214.2
2016-Aug-16 10:33N 47°57' W 122°32'1313.0
2016-Aug-16 09:33N 47°44' W 122°26'1313.1
2016-Aug-16 08:33N 47°31' W 122°25'1212.0
2016-Aug-16 07:33N 47°19' W 122°26'3 0.5
2016-Aug-16 00:33N 47°16' W 122°25'0 0.0
2016-Aug-15 21:33N 47°16' W 122°25'0 0.0
2016-Aug-15 20:09N 47°16' W 122°25'0 0.0
2016-Aug-15 19:21N 47°16' W 122°25'0 0.0
2016-Aug-15 18:30N 47°16' W 122°25'0 0.0
2016-Aug-15 17:33N 47°16' W 122°25'0 0.0
2016-Aug-15 16:27N 47°16' W 122°25'0 0.0
2016-Aug-15 15:33N 47°16' W 122°25'0 0.0
2016-Aug-15 14:33N 47°16' W 122°25'0 0.0
2016-Aug-15 13:30N 47°16' W 122°25'0 0.0
2016-Aug-15 11:18N 47°16' W 122°25'0 0.0
2016-Aug-15 09:11N 47°16' W 122°25'0 0.0
2016-Aug-15 07:24N 47°16' W 122°25'0 0.0
2016-Aug-15 06:29N 47°16' W 122°25'0 0.0
2016-Aug-15 04:30N 47°16' W 122°25'0 0.0
2016-Aug-14 23:29N 47°16' W 122°25'0 0.0
2016-Aug-14 21:32N 47°16' W 122°25'0 0.0
2016-Aug-14 20:32N 47°16' W 122°25'0 0.0
2016-Aug-14 19:29N 47°16' W 122°25'0 0.0
2016-Aug-14 18:29N 47°16' W 122°25'0 0.0
2016-Aug-14 17:23N 47°16' W 122°25'0 0.0
2016-Aug-14 16:29N 47°16' W 122°25'0 0.0
2016-Aug-14 15:30N 47°16' W 122°25'0 0.0
2016-Aug-14 14:29N 47°16' W 122°25'0 0.0
2016-Aug-14 12:17N 47°16' W 122°25'0 0.1
2016-Aug-14 11:29N 47°16' W 122°25'0 0.0
2016-Aug-14 10:29N 47°16' W 122°25'0 0.0
2016-Aug-14 09:32N 47°16' W 122°25'0 0.0
2016-Aug-14 08:33N 47°16' W 122°25'0 0.0
2016-Aug-14 07:29N 47°16' W 122°25'0 0.0
2016-Aug-14 06:29N 47°16' W 122°25'0 0.0
2016-Aug-14 04:17N 47°16' W 122°25'0 0.0
2016-Aug-14 03:32N 47°16' W 122°25'4 4.6
2016-Aug-14 02:33N 47°21' W 122°26'1111.0
2016-Aug-14 01:33N 47°32' W 122°26'1313.1
2016-Aug-14 00:33N 47°45' W 122°27'1312.6
2016-Aug-13 23:33N 47°57' W 122°33'1312.6
2016-Aug-13 22:29N 48°08' W 122°43'1112.0
2016-Aug-13 21:33N 48°12' W 122°59'1313.3
2016-Aug-13 20:33N 48°10' W 123°19'1111.6
2016-Aug-13 19:34N 48°13' W 123°35'1413.9
2016-Aug-13 18:32N 48°14' W 123°57'1313.6
2016-Aug-13 17:33N 48°20' W 124°15'1313.5
2016-Aug-13 16:33N 48°25' W 124°33'1212.4
2016-Aug-13 15:33N 48°29' W 124°51'1212.0
2016-Aug-13 14:33N 48°21' W 125°05'1313.4
2016-Aug-13 13:33N 48°09' W 125°11'1712.9
2016-Aug-13 12:14N 47°52' W 125°18'812.6
2016-Aug-13 11:33N 47°43' W 125°17'1212.3
2016-Aug-13 10:33N 47°31' W 125°16'1312.6
2016-Aug-13 09:33N 47°19' W 125°14'1212.5
2016-Aug-13 08:33N 47°06' W 125°13'1312.5
2016-Aug-13 07:33N 46°54' W 125°10'1212.4
2016-Aug-13 06:34N 46°42' W 125°08'1212.1
2016-Aug-13 05:33N 46°30' W 125°05'1212.2
2016-Aug-13 04:33N 46°18' W 125°02'1212.3
2016-Aug-13 03:34N 46°05' W 125°00'1212.2
2016-Aug-13 02:33N 45°53' W 124°59'1211.9
2016-Aug-13 01:34N 45°41' W 124°57'1212.0
2016-Aug-13 00:34N 45°30' W 124°53'1212.3
2016-Aug-12 23:34N 45°18' W 124°47'1212.3
2016-Aug-12 22:33N 45°06' W 124°44'1312.9
2016-Aug-12 21:34N 44°54' W 124°53'1312.8
2016-Aug-12 20:33N 44°42' W 124°58'1412.6
2016-Aug-12 19:28N 44°29' W 124°59'2412.4
2016-Aug-12 17:34N 44°05' W 124°55'1212.2
2016-Aug-12 16:34N 43°53' W 124°54'1312.1
2016-Aug-12 15:31N 43°40' W 124°53'1611.6
2016-Aug-12 14:09N 43°24' W 124°52'26910.1
2016-Aug-11 11:23N 38°57' W 124°04'1512.7
2016-Aug-11 10:14N 38°45' W 123°53'  

Dump ship's entire track history